Time;durP1;ratioP1;P1;durP2;ratioP2;P2;SDS_P1;SDS_P2;PMS_P1;PMS_P2;Temp;Humidity;BMP_temperature;BMP_pressure;BME280_temperature;BME280_humidity;BME280_pressure;Samples;Min_cycle;Max_cycle;Signal;HPM_P1;HPM_P2
2022/07/18 00:02:08;;;;;;;3.95;1.70;;;15.50;99.90;;;;;;5036500;28;20845;-73
2022/07/18 00:04:34;;;;;;;2.53;1.55;;;15.50;99.90;;;;;;5055123;28;20814;-73
2022/07/18 00:07:00;;;;;;;2.53;1.42;;;15.40;99.90;;;;;;5035434;28;20044;-73
2022/07/18 00:09:25;;;;;;;4.90;1.60;;;15.40;99.90;;;;;;5035864;28;20095;-73
2022/07/18 00:11:51;;;;;;;3.03;1.30;;;15.30;99.90;;;;;;5037555;28;20041;-73
2022/07/18 00:14:19;;;;;;;3.63;1.67;;;15.30;99.90;;;;;;5036082;28;20665;-73
2022/07/18 00:16:45;;;;;;;4.53;1.48;;;15.30;99.90;;;;;;5017117;28;20125;-73
2022/07/18 00:19:11;;;;;;;4.60;1.77;;;15.30;99.90;;;;;;5021463;28;20124;-73
2022/07/18 00:21:36;;;;;;;4.00;1.33;;;15.20;99.90;;;;;;5037845;28;20072;-73
2022/07/18 00:24:02;;;;;;;6.47;1.45;;;15.20;99.90;;;;;;5036329;28;20048;-73
2022/07/18 00:26:28;;;;;;;4.00;2.30;;;15.20;99.90;;;;;;5019435;28;20036;-73
2022/07/18 00:28:53;;;;;;;3.55;2.10;;;15.20;99.90;;;;;;5016427;28;20424;-73
2022/07/18 00:31:19;;;;;;;3.58;1.48;;;15.30;99.90;;;;;;5038880;28;20181;-73
2022/07/18 00:33:44;;;;;;;5.05;2.20;;;15.30;99.90;;;;;;5034469;28;20037;-73
2022/07/18 00:36:10;;;;;;;3.17;1.85;;;15.30;99.90;;;;;;5036901;28;20196;-73
2022/07/18 00:38:36;;;;;;;2.58;1.63;;;15.20;99.90;;;;;;5036733;28;20057;-73
2022/07/18 00:41:02;;;;;;;3.95;1.42;;;15.20;99.90;;;;;;5017895;28;20067;-73
2022/07/18 00:43:28;;;;;;;3.83;1.48;;;15.20;99.90;;;;;;5017789;28;20032;-73
2022/07/18 00:45:53;;;;;;;5.70;1.70;;;15.30;99.90;;;;;;5037330;28;20040;-73
2022/07/18 00:48:20;;;;;;;3.63;1.80;;;15.30;99.90;;;;;;5034302;28;20036;-73
2022/07/18 00:50:46;;;;;;;2.78;1.65;;;15.30;99.90;;;;;;5036098;28;20112;-72
2022/07/18 00:53:12;;;;;;;3.30;1.60;;;15.30;99.90;;;;;;5036382;28;20061;-73
2022/07/18 00:55:44;;;;;;;4.72;2.05;;;15.30;99.90;;;;;;5053888;28;20055;-73
2022/07/18 00:58:11;;;;;;;3.05;1.58;;;15.20;99.90;;;;;;5038113;28;20041;-73
2022/07/18 01:03:22;;;;;;;3.05;1.30;;;15.20;99.90;;;;;;5032956;28;20048;-73
2022/07/18 01:05:47;;;;;;;2.45;1.27;;;15.20;99.90;;;;;;5037730;28;20041;-73
2022/07/18 01:08:13;;;;;;;3.38;1.50;;;15.10;99.90;;;;;;5035059;28;20060;-73
2022/07/18 01:10:39;;;;;;;2.97;1.45;;;15.10;99.90;;;;;;5036239;28;20438;-73
2022/07/18 01:13:04;;;;;;;3.15;1.60;;;15.10;99.90;;;;;;5038834;28;20053;-72
2022/07/18 01:15:30;;;;;;;4.00;1.73;;;15.10;99.90;;;;;;5035351;28;20037;-73
2022/07/18 01:17:56;;;;;;;3.47;1.80;;;15.10;99.90;;;;;;5021802;28;20134;-73
2022/07/18 01:20:21;;;;;;;4.03;1.60;;;15.10;99.90;;;;;;5036373;28;20041;-73
2022/07/18 01:22:47;;;;;;;4.15;1.52;;;15.10;99.90;;;;;;5039410;28;20048;-73
2022/07/18 01:25:16;;;;;;;3.20;1.55;;;15.00;99.90;;;;;;5040793;28;20469;-73
2022/07/18 01:27:42;;;;;;;5.30;1.92;;;15.10;99.90;;;;;;5040815;28;20033;-73
2022/07/18 01:30:08;;;;;;;3.15;1.25;;;14.90;99.90;;;;;;5037863;28;20095;-73
2022/07/18 01:32:34;;;;;;;3.30;1.35;;;14.90;99.90;;;;;;5040267;28;20670;-73
2022/07/18 01:34:59;;;;;;;4.68;1.58;;;14.90;99.90;;;;;;5024675;28;20048;-73
2022/07/18 01:37:25;;;;;;;3.45;1.77;;;14.90;99.90;;;;;;5040856;28;20037;-73
2022/07/18 01:39:51;;;;;;;3.72;1.80;;;14.90;99.90;;;;;;5037607;28;20033;-73
2022/07/18 01:42:17;;;;;;;3.97;1.88;;;14.80;99.90;;;;;;5052858;28;20047;-73
2022/07/18 01:44:43;;;;;;;3.67;1.52;;;14.90;99.90;;;;;;5040687;28;20094;-73
2022/07/18 01:47:10;;;;;;;4.90;1.70;;;14.90;99.90;;;;;;5040990;28;20094;-73
2022/07/18 01:49:36;;;;;;;7.65;1.45;;;14.80;99.90;;;;;;5038042;28;20083;-73
2022/07/18 01:52:03;;;;;;;3.63;1.88;;;14.80;99.90;;;;;;5057148;28;21547;-73
2022/07/18 01:54:32;;;;;;;5.13;2.00;;;14.80;99.90;;;;;;5040031;28;20045;-73
2022/07/18 01:56:59;;;;;;;4.18;1.58;;;14.70;99.90;;;;;;5041128;28;20039;-73
2022/07/18 01:59:25;;;;;;;3.45;1.75;;;14.70;99.90;;;;;;5038642;28;20076;-73
2022/07/18 02:01:52;;;;;;;4.07;1.88;;;14.70;99.90;;;;;;5038416;28;20132;-73
2022/07/18 02:04:18;;;;;;;2.75;1.48;;;14.70;99.90;;;;;;5043856;28;20049;-73
2022/07/18 02:06:44;;;;;;;4.47;2.00;;;14.70;99.90;;;;;;5041957;28;20123;-73
2022/07/18 02:09:10;;;;;;;4.00;1.30;;;14.70;99.90;;;;;;5040283;28;20045;-73
2022/07/18 02:11:36;;;;;;;4.30;2.00;;;14.70;99.90;;;;;;5028835;28;20498;-73
2022/07/18 02:14:04;;;;;;;3.63;1.70;;;14.60;99.90;;;;;;5038528;28;20060;-73
2022/07/18 02:16:29;;;;;;;4.63;1.88;;;14.60;99.90;;;;;;5039105;28;20151;-73
2022/07/18 02:18:57;;;;;;;4.40;1.75;;;14.60;99.90;;;;;;5038086;28;20059;-73
2022/07/18 02:21:23;;;;;;;3.22;1.48;;;14.60;99.90;;;;;;5036729;28;20064;-73
2022/07/18 02:23:50;;;;;;;3.05;1.55;;;14.60;99.90;;;;;;5022087;28;20040;-73
2022/07/18 02:26:17;;;;;;;2.88;1.60;;;14.50;99.90;;;;;;5022817;28;20040;-73
2022/07/18 02:28:42;;;;;;;3.03;1.55;;;14.50;99.90;;;;;;5038066;28;20049;-73
2022/07/18 02:31:08;;;;;;;4.38;1.80;;;14.50;99.90;;;;;;5037473;28;20045;-73
2022/07/18 02:33:34;;;;;;;7.10;1.95;;;14.50;99.90;;;;;;5040853;28;20044;-73
2022/07/18 02:35:59;;;;;;;3.22;1.63;;;14.40;99.90;;;;;;5040337;28;20048;-73
2022/07/18 02:38:25;;;;;;;4.90;1.92;;;14.40;99.90;;;;;;5038598;28;20036;-73
2022/07/18 02:40:51;;;;;;;4.82;1.80;;;14.40;99.90;;;;;;5038205;28;20516;-73
2022/07/18 02:43:16;;;;;;;2.88;1.50;;;14.40;99.90;;;;;;5054489;28;20241;-73
2022/07/18 02:45:42;;;;;;;4.30;1.77;;;14.30;99.90;;;;;;5038693;28;20147;-73
2022/07/18 02:48:08;;;;;;;4.10;2.00;;;14.30;99.90;;;;;;5039467;28;20647;-73
2022/07/18 02:50:34;;;;;;;7.68;1.80;;;14.40;99.90;;;;;;5038757;28;20045;-72
2022/07/18 02:53:00;;;;;;;3.38;1.55;;;14.30;99.90;;;;;;5038160;28;20048;-72
2022/07/18 02:55:25;;;;;;;5.68;1.92;;;14.30;99.90;;;;;;5022811;28;20037;-73
2022/07/18 02:57:51;;;;;;;3.95;1.45;;;14.30;99.90;;;;;;5021697;28;20061;-73
2022/07/18 03:00:17;;;;;;;3.78;1.80;;;14.30;99.90;;;;;;5038521;28;20041;-73
2022/07/18 03:02:44;;;;;;;2.97;1.45;;;14.30;99.90;;;;;;5039764;28;20549;-73
2022/07/18 03:05:10;;;;;;;5.50;1.75;;;14.30;99.90;;;;;;5038548;28;20576;-73
2022/07/18 03:07:36;;;;;;;3.33;2.10;;;14.30;99.90;;;;;;5040198;28;20072;-73
2022/07/18 03:10:03;;;;;;;3.38;1.52;;;14.30;99.90;;;;;;5039503;28;20120;-72
2022/07/18 03:12:28;;;;;;;3.65;1.50;;;14.20;99.90;;;;;;5041079;28;20062;-73
2022/07/18 03:14:54;;;;;;;3.78;1.77;;;14.20;99.90;;;;;;5044038;28;20052;-72
2022/07/18 03:17:19;;;;;;;4.57;1.48;;;14.20;99.90;;;;;;5037520;28;20140;-73
2022/07/18 03:19:45;;;;;;;3.95;1.67;;;14.20;99.90;;;;;;5041858;28;20086;-72
2022/07/18 03:22:11;;;;;;;3.30;1.48;;;14.20;99.90;;;;;;5037826;28;20068;-73
2022/07/18 03:24:36;;;;;;;5.40;2.40;;;14.20;99.90;;;;;;5037797;28;20045;-73
2022/07/18 03:27:02;;;;;;;2.97;1.65;;;14.20;99.90;;;;;;5035216;28;20052;-73
2022/07/18 03:29:27;;;;;;;3.40;1.95;;;14.20;99.90;;;;;;5037417;28;20511;-72
2022/07/18 03:31:53;;;;;;;4.72;2.20;;;14.20;99.90;;;;;;5037269;28;20036;-73
2022/07/18 03:34:19;;;;;;;4.00;1.85;;;14.30;99.90;;;;;;5043049;28;20040;-73
2022/07/18 03:36:45;;;;;;;4.82;1.80;;;14.30;99.90;;;;;;5037064;28;20039;-72
2022/07/18 03:39:10;;;;;;;5.07;2.10;;;14.30;99.90;;;;;;5052273;28;20861;-73
2022/07/18 03:41:37;;;;;;;6.10;2.05;;;14.30;99.90;;;;;;5039525;28;20143;-72
2022/07/18 03:44:03;;;;;;;5.32;1.88;;;14.30;99.90;;;;;;5036427;28;20063;-72
2022/07/18 03:46:29;;;;;;;4.32;1.85;;;14.30;99.90;;;;;;5039578;28;20051;-73
2022/07/18 03:48:55;;;;;;;4.47;2.00;;;14.20;99.90;;;;;;5038164;28;20450;-73
2022/07/18 03:51:21;;;;;;;4.50;1.83;;;14.30;99.90;;;;;;5036169;28;20082;-73
2022/07/18 03:53:47;;;;;;;3.88;1.83;;;14.20;99.90;;;;;;5040012;28;20087;-72
2022/07/18 03:56:12;;;;;;;5.50;2.25;;;14.30;99.90;;;;;;5038313;28;20113;-72
2022/07/18 03:58:38;;;;;;;4.22;1.90;;;14.20;99.90;;;;;;5036146;28;20596;-73
2022/07/18 04:01:04;;;;;;;4.57;2.00;;;14.30;99.90;;;;;;5038253;28;20390;-73
2022/07/18 04:03:29;;;;;;;5.55;2.47;;;14.30;99.90;;;;;;5035895;28;20045;-73
2022/07/18 04:05:55;;;;;;;6.57;2.25;;;14.30;99.90;;;;;;5035585;28;20047;-72
2022/07/18 04:08:20;;;;;;;4.78;2.35;;;14.30;99.90;;;;;;5038770;28;20087;-72
2022/07/18 04:10:46;;;;;;;4.22;2.00;;;14.30;99.90;;;;;;5037102;28;20075;-73
2022/07/18 04:13:12;;;;;;;4.40;2.03;;;14.30;99.90;;;;;;5037760;28;20529;-73
2022/07/18 04:15:38;;;;;;;5.97;2.35;;;14.30;99.90;;;;;;5036107;28;20506;-73
2022/07/18 04:18:06;;;;;;;9.10;2.13;;;14.30;99.90;;;;;;5035435;28;20033;-73
2022/07/18 04:20:32;;;;;;;6.85;2.55;;;14.30;99.90;;;;;;5037256;28;20037;-73
2022/07/18 04:23:01;;;;;;;3.15;1.55;;;14.30;99.90;;;;;;5039073;28;20043;-73
2022/07/18 04:25:29;;;;;;;4.88;2.20;;;14.40;99.90;;;;;;5053361;28;20072;-73
2022/07/18 04:27:56;;;;;;;3.40;1.48;;;14.40;99.90;;;;;;5037134;28;20052;-73
2022/07/18 04:30:24;;;;;;;4.43;2.20;;;14.40;99.90;;;;;;5036996;28;20078;-73
2022/07/18 04:32:50;;;;;;;4.53;2.08;;;14.40;99.90;;;;;;5037709;28;20469;-72
2022/07/18 04:35:16;;;;;;;4.53;2.10;;;14.50;99.90;;;;;;5035574;28;20041;-73
2022/07/18 04:37:42;;;;;;;3.45;1.52;;;14.50;99.90;;;;;;5037835;28;20057;-73
2022/07/18 04:40:09;;;;;;;5.63;2.38;;;14.60;99.90;;;;;;5038003;28;20033;-72
2022/07/18 04:42:35;;;;;;;2.92;1.45;;;14.60;99.90;;;;;;5036849;28;20514;-73
2022/07/18 04:45:01;;;;;;;3.65;2.03;;;14.70;99.90;;;;;;5038752;28;20120;-73
2022/07/18 04:47:28;;;;;;;3.45;1.67;;;14.70;99.90;;;;;;5038118;28;20152;-73
2022/07/18 04:49:54;;;;;;;5.85;2.08;;;14.80;99.90;;;;;;5036174;28;20037;-73
2022/07/18 04:52:20;;;;;;;5.97;2.08;;;14.80;99.90;;;;;;5020051;28;20048;-73
2022/07/18 04:54:46;;;;;;;7.25;2.58;;;14.90;99.90;;;;;;5037534;28;20087;-72
2022/07/18 04:57:14;;;;;;;2.70;1.70;;;14.90;99.90;;;;;;5038604;28;20461;-73
2022/07/18 04:59:41;;;;;;;5.32;1.98;;;15.00;99.90;;;;;;5040028;28;20083;-73
2022/07/18 05:02:07;;;;;;;3.83;1.92;;;15.00;99.90;;;;;;5042654;28;20047;-73
2022/07/18 05:04:32;;;;;;;3.15;1.58;;;14.90;99.90;;;;;;5044001;28;20037;-73
2022/07/18 05:06:58;;;;;;;3.70;1.63;;;15.10;99.90;;;;;;5056235;28;20045;-73
2022/07/18 05:09:23;;;;;;;3.38;1.50;;;15.10;99.90;;;;;;5044497;28;20041;-73
2022/07/18 05:11:49;;;;;;;2.55;1.50;;;15.20;99.90;;;;;;5041931;28;20029;-73
2022/07/18 05:14:14;;;;;;;5.60;1.52;;;15.20;99.90;;;;;;5040691;28;20126;-73
2022/07/18 05:16:40;;;;;;;3.25;1.70;;;15.30;99.90;;;;;;5042196;28;20037;-73
2022/07/18 05:19:06;;;;;;;3.08;1.60;;;15.30;99.90;;;;;;5038599;28;20444;-73
2022/07/18 05:21:31;;;;;;;3.03;1.30;;;15.30;99.90;;;;;;5040955;28;20047;-73
2022/07/18 05:23:57;;;;;;;4.13;1.50;;;15.40;99.90;;;;;;5023955;28;20398;-73
2022/07/18 05:26:22;;;;;;;2.67;1.38;;;15.40;99.90;;;;;;5040305;28;20056;-73
2022/07/18 05:28:48;;;;;;;4.03;1.30;;;15.50;99.90;;;;;;5042208;28;20537;-73
2022/07/18 05:31:13;;;;;;;3.30;1.38;;;15.50;99.90;;;;;;5042070;28;20041;-73
2022/07/18 05:33:39;;;;;;;2.78;1.20;;;15.60;99.90;;;;;;5039471;28;20036;-73
2022/07/18 05:36:05;;;;;;;3.58;1.58;;;15.60;99.90;;;;;;5042610;28;20033;-73
2022/07/18 05:38:31;;;;;;;2.70;1.40;;;15.60;99.90;;;;;;5057052;28;20600;-73
2022/07/18 05:40:56;;;;;;;2.22;1.02;;;15.70;99.90;;;;;;5040294;28;20048;-73
2022/07/18 05:43:22;;;;;;;3.08;1.20;;;15.70;99.90;;;;;;5039664;28;20061;-73
2022/07/18 05:45:48;;;;;;;2.70;1.35;;;15.90;99.90;;;;;;5025540;28;20033;-73
2022/07/18 05:48:13;;;;;;;2.72;1.02;;;15.80;99.90;;;;;;5042055;28;20040;-73
2022/07/18 05:50:39;;;;;;;5.68;1.73;;;15.90;99.90;;;;;;5043299;28;20064;-73
2022/07/18 05:53:05;;;;;;;2.72;1.05;;;16.00;99.90;;;;;;5043391;28;20063;-73
2022/07/18 05:55:30;;;;;;;2.85;1.63;;;16.00;99.90;;;;;;5047832;28;20066;-73
2022/07/18 05:57:56;;;;;;;2.85;1.23;;;16.10;99.90;;;;;;5055465;28;20114;-73
2022/07/18 06:00:22;;;;;;;4.90;1.08;;;16.20;99.90;;;;;;5026594;28;20041;-73
2022/07/18 06:02:48;;;;;;;3.90;1.13;;;16.30;99.90;;;;;;5038005;28;20044;-73
2022/07/18 06:05:14;;;;;;;2.60;1.20;;;16.30;99.90;;;;;;5042768;28;20041;-73
2022/07/18 06:07:40;;;;;;;3.13;1.00;;;16.40;99.90;;;;;;5041069;28;20562;-73
2022/07/18 06:10:06;;;;;;;3.80;1.05;;;16.50;99.90;;;;;;5041837;28;20049;-73
2022/07/18 06:12:32;;;;;;;5.03;1.42;;;16.50;99.90;;;;;;5039551;28;20048;-73
2022/07/18 06:14:59;;;;;;;2.53;1.08;;;16.60;99.90;;;;;;5046467;28;20049;-70
2022/07/18 06:17:25;;;;;;;2.70;1.23;;;16.70;99.90;;;;;;5038360;28;20078;-73
2022/07/18 06:19:51;;;;;;;4.03;1.45;;;16.80;99.90;;;;;;5041665;28;20029;-72
2022/07/18 06:22:17;;;;;;;1.83;0.77;;;16.80;99.90;;;;;;5022926;28;20056;-73
2022/07/18 06:24:43;;;;;;;2.92;1.33;;;16.80;99.90;;;;;;5041819;28;20908;-73
2022/07/18 06:27:08;;;;;;;1.50;0.75;;;16.90;99.90;;;;;;5042142;28;20044;-73
2022/07/18 06:29:34;;;;;;;1.20;0.60;;;17.10;99.90;;;;;;5054817;28;20087;-72
2022/07/18 06:31:59;;;;;;;4.85;0.80;;;17.10;99.90;;;;;;5055617;28;20028;-74
2022/07/18 06:34:25;;;;;;;1.88;0.90;;;17.30;99.90;;;;;;5041213;28;20586;-73
2022/07/18 06:36:50;;;;;;;2.53;1.05;;;17.30;99.90;;;;;;5032790;28;20132;-74
2022/07/18 06:39:18;;;;;;;1.63;0.68;;;17.40;99.90;;;;;;5037893;28;20037;-73
2022/07/18 06:41:44;;;;;;;2.17;0.82;;;17.60;99.90;;;;;;5036331;28;20386;-73
2022/07/18 06:44:10;;;;;;;3.38;0.80;;;17.70;99.90;;;;;;5039807;28;20052;-73
2022/07/18 06:46:36;;;;;;;1.58;0.88;;;17.70;99.90;;;;;;5040013;28;20051;-73
2022/07/18 06:49:03;;;;;;;1.77;0.65;;;17.80;99.90;;;;;;5039325;28;20064;-72
2022/07/18 06:51:29;;;;;;;2.58;0.90;;;18.10;99.90;;;;;;5038372;28;20043;-72
2022/07/18 06:53:54;;;;;;;3.85;0.80;;;18.70;99.90;;;;;;5038478;28;20037;-74
2022/07/18 06:56:20;;;;;;;1.98;0.73;;;19.50;98.40;;;;;;5036763;28;20040;-73
2022/07/18 06:58:49;;;;;;;2.40;0.82;;;20.30;96.40;;;;;;5039341;28;20040;-73
2022/07/18 07:01:16;;;;;;;1.73;0.80;;;21.00;94.20;;;;;;5033993;28;20032;-73
2022/07/18 07:03:41;;;;;;;1.58;0.68;;;21.10;93.50;;;;;;5037290;28;20040;-73
2022/07/18 07:06:07;;;;;;;2.67;0.70;;;20.90;93.40;;;;;;5021779;28;20068;-73
2022/07/18 07:08:33;;;;;;;1.40;0.70;;;20.70;93.80;;;;;;5023368;28;20032;-73
2022/07/18 07:10:59;;;;;;;3.03;0.77;;;20.50;94.40;;;;;;5038922;28;20040;-73
2022/07/18 07:13:25;;;;;;;1.23;0.60;;;20.30;94.70;;;;;;5038412;28;20057;-73
2022/07/18 07:15:51;;;;;;;1.10;0.57;;;20.20;94.80;;;;;;5042919;28;20224;-73
2022/07/18 07:18:16;;;;;;;0.85;0.40;;;20.10;95.00;;;;;;5037459;28;20029;-76
2022/07/18 07:20:42;;;;;;;2.80;0.85;;;20.00;95.30;;;;;;5021844;28;20057;-73
2022/07/18 07:23:08;;;;;;;1.75;0.73;;;19.90;95.40;;;;;;5040869;28;20044;-74
2022/07/18 07:25:35;;;;;;;1.85;0.70;;;19.90;95.40;;;;;;5037910;28;20776;-74
2022/07/18 07:28:01;;;;;;;1.38;0.70;;;19.90;95.60;;;;;;5030812;28;20052;-74
2022/07/18 07:30:27;;;;;;;2.60;0.80;;;19.90;95.40;;;;;;5039762;28;20122;-74
2022/07/18 07:32:52;;;;;;;5.32;0.65;;;19.90;95.30;;;;;;5048314;28;20040;-74
2022/07/18 07:35:19;;;;;;;1.55;0.40;;;19.90;94.90;;;;;;5037861;28;20041;-74
2022/07/18 07:37:48;;;;;;;5.60;0.88;;;19.90;94.50;;;;;;5029521;28;20040;-74
2022/07/18 07:40:15;;;;;;;0.85;0.47;;;19.90;94.50;;;;;;5035024;28;20041;-74
2022/07/18 07:42:40;;;;;;;1.10;0.47;;;19.90;94.60;;;;;;5033586;28;20255;-73
2022/07/18 07:45:08;;;;;;;2.75;0.75;;;19.90;94.70;;;;;;5034209;28;20172;-73
2022/07/18 07:47:35;;;;;;;1.20;0.63;;;19.90;94.80;;;;;;5035713;28;20043;-74
2022/07/18 07:50:01;;;;;;;2.63;0.98;;;20.10;94.70;;;;;;5038003;28;20033;-73
2022/07/18 07:52:28;;;;;;;1.50;0.60;;;20.10;94.60;;;;;;5022472;28;20052;-74
2022/07/18 07:54:54;;;;;;;1.88;0.90;;;20.20;94.40;;;;;;5038048;28;20049;-74
2022/07/18 07:57:20;;;;;;;3.70;0.77;;;20.40;94.10;;;;;;5037695;28;20056;-74
2022/07/18 07:59:45;;;;;;;1.27;0.57;;;20.50;93.70;;;;;;5041402;28;20490;-73
2022/07/18 08:02:11;;;;;;;1.73;0.60;;;20.60;93.50;;;;;;5040710;28;20127;-73
2022/07/18 08:04:37;;;;;;;1.50;0.65;;;20.60;93.50;;;;;;5037561;28;20115;-73
2022/07/18 08:07:02;;;;;;;2.47;0.70;;;20.70;93.50;;;;;;5036744;28;20045;-74
2022/07/18 08:09:28;;;;;;;2.33;0.90;;;20.70;93.40;;;;;;5033181;28;20052;-74
2022/07/18 08:11:53;;;;;;;2.90;0.80;;;20.70;93.40;;;;;;5031010;28;20044;-74
2022/07/18 08:14:19;;;;;;;1.90;0.70;;;20.70;93.20;;;;;;5017105;28;20044;-74
2022/07/18 08:16:45;;;;;;;1.15;0.50;;;20.60;93.20;;;;;;5036895;28;20041;-74
2022/07/18 08:19:10;;;;;;;1.77;0.70;;;20.60;93.20;;;;;;5040385;28;20043;-74
2022/07/18 08:21:36;;;;;;;2.25;0.77;;;20.60;93.30;;;;;;5030809;28;20085;-71
2022/07/18 08:24:02;;;;;;;2.50;0.60;;;20.70;93.30;;;;;;5031520;28;20498;-74
2022/07/18 08:26:28;;;;;;;0.93;0.50;;;20.90;93.10;;;;;;5038983;28;20060;-73
2022/07/18 08:28:53;;;;;;;0.98;0.57;;;21.00;93.10;;;;;;5030724;28;20140;-74
2022/07/18 08:31:19;;;;;;;1.10;0.50;;;21.00;93.10;;;;;;5060816;28;20040;-74
2022/07/18 08:33:45;;;;;;;1.10;0.55;;;21.00;92.90;;;;;;5030408;28;20094;-74
2022/07/18 08:36:11;;;;;;;1.35;0.57;;;21.10;92.90;;;;;;5047441;28;20398;-74
2022/07/18 08:38:36;;;;;;;1.42;0.60;;;21.20;92.50;;;;;;5046786;28;20037;-74
2022/07/18 08:41:03;;;;;;;1.65;0.60;;;21.40;92.00;;;;;;5046631;28;20076;-74
2022/07/18 08:43:29;;;;;;;1.73;0.40;;;21.40;91.50;;;;;;5046932;28;20486;-74
2022/07/18 08:46:01;;;;;;;1.85;0.68;;;21.50;91.60;;;;;;5044817;28;20039;-74
2022/07/18 08:48:26;;;;;;;0.70;0.40;;;21.60;91.10;;;;;;5046070;28;20049;-74
2022/07/18 08:50:52;;;;;;;1.17;0.60;;;21.70;90.80;;;;;;5047236;28;20048;-74
2022/07/18 08:53:19;;;;;;;1.52;0.60;;;21.80;90.20;;;;;;5047041;28;20132;-74
2022/07/18 08:55:46;;;;;;;0.75;0.40;;;21.70;89.10;;;;;;5046719;28;20086;-74
2022/07/18 08:58:13;;;;;;;1.48;0.65;;;21.80;89.10;;;;;;5027485;28;20037;-74
2022/07/18 09:00:39;;;;;;;1.38;0.50;;;21.90;88.90;;;;;;5027019;28;20423;-74
2022/07/18 09:03:05;;;;;;;1.95;0.50;;;22.00;88.80;;;;;;5036840;28;20052;-74
2022/07/18 09:05:32;;;;;;;1.00;0.50;;;22.10;88.30;;;;;;5045367;28;20080;-74
2022/07/18 09:08:12;;;;;;;1.10;0.40;;;22.20;88.20;;;;;;5046438;28;20041;-74
2022/07/18 09:10:58;;;;;;;1.02;0.50;;;22.30;86.70;;;;;;5046077;28;20045;-74
2022/07/18 09:13:34;;;;;;;2.40;0.77;;;22.40;83.70;;;;;;5025945;28;20057;-74
2022/07/18 09:16:03;;;;;;;1.25;0.50;;;22.40;87.20;;;;;;5034128;28;20554;-74
2022/07/18 09:18:38;;;;;;;1.10;0.50;;;22.40;87.00;;;;;;5030254;28;20413;-74
2022/07/18 09:21:17;;;;;;;0.73;0.38;;;22.30;85.80;;;;;;5046664;28;20037;-74
2022/07/18 09:23:45;;;;;;;1.48;0.43;;;22.40;86.70;;;;;;5046139;28;20045;-74
2022/07/18 09:26:11;;;;;;;2.08;0.70;;;22.30;87.90;;;;;;5045259;28;20049;-74
2022/07/18 09:28:46;;;;;;;1.27;0.50;;;22.30;87.80;;;;;;5029562;28;20040;-74
2022/07/18 09:31:26;;;;;;;;;;;22.40;86.30;;;;;;5045942;28;20045;-74
2022/07/18 09:34:00;;;;;;;1.02;0.45;;;22.40;81.40;;;;;;5046354;28;19917;-74
2022/07/18 09:36:27;;;;;;;1.33;0.57;;;22.40;87.20;;;;;;5046201;28;20041;-74
2022/07/18 09:38:53;;;;;;;1.70;0.68;;;22.60;87.20;;;;;;5045293;28;20553;-74
2022/07/18 09:41:27;;;;;;;3.53;0.43;;;22.60;86.60;;;;;;5040107;28;20047;-74
2022/07/18 09:43:53;;;;;;;1.63;0.55;;;22.80;85.00;;;;;;5038320;28;20045;-71
2022/07/18 09:46:19;;;;;;;2.20;0.55;;;22.80;85.80;;;;;;5039870;28;20097;-74
2022/07/18 09:48:45;;;;;;;0.85;0.43;;;22.80;84.70;;;;;;5038566;28;20037;-74
2022/07/18 09:51:11;;;;;;;6.97;1.00;;;22.80;84.50;;;;;;5038331;28;20164;-74
2022/07/18 09:53:38;;;;;;;3.58;0.65;;;22.80;83.70;;;;;;5037331;28;20037;-74
2022/07/18 09:56:07;;;;;;;1.60;0.70;;;22.90;83.10;;;;;;5026843;28;20041;-74
2022/07/18 09:58:36;;;;;;;1.65;0.50;;;23.10;82.00;;;;;;5052355;28;20037;-74
2022/07/18 10:01:03;;;;;;;1.48;0.55;;;23.20;80.80;;;;;;5036469;28;20052;-75
2022/07/18 10:03:29;;;;;;;1.17;0.52;;;23.30;79.70;;;;;;5035661;28;20045;-75
2022/07/18 10:05:56;;;;;;;1.85;0.45;;;23.30;78.80;;;;;;5039592;28;20037;-74
2022/07/18 10:08:25;;;;;;;2.10;0.57;;;23.30;78.50;;;;;;5044106;28;20045;-78
2022/07/18 10:10:53;;;;;;;2.35;0.50;;;23.30;77.80;;;;;;5033935;28;20500;-75
2022/07/18 10:13:20;;;;;;;0.93;0.40;;;23.30;76.50;;;;;;5036650;28;20057;-74
2022/07/18 10:15:47;;;;;;;1.52;0.55;;;23.30;76.80;;;;;;5041295;28;20399;-75
2022/07/18 10:18:17;;;;;;;1.23;0.65;;;23.40;76.20;;;;;;5021215;28;20085;-74
2022/07/18 10:20:47;;;;;;;0.90;0.45;;;23.40;75.80;;;;;;5042156;28;20495;-75
2022/07/18 10:23:18;;;;;;;1.90;0.50;;;23.50;73.80;;;;;;5037433;28;20046;-75
2022/07/18 10:25:44;;;;;;;0.80;0.30;;;23.60;73.90;;;;;;5036777;28;20410;-75
2022/07/18 10:28:12;;;;;;;1.35;0.77;;;23.60;73.70;;;;;;5032662;28;20068;-75
2022/07/18 10:30:43;;;;;;;3.28;0.90;;;23.70;73.30;;;;;;5033784;28;20554;-75
2022/07/18 10:33:36;;;;;;;3.50;0.60;;;23.70;72.90;;;;;;5034882;28;20047;-75
2022/07/18 10:36:05;;;;;;;1.45;0.50;;;23.60;70.70;;;;;;5035785;28;20037;-75
2022/07/18 10:38:30;;;;;;;1.80;0.82;;;23.60;73.80;;;;;;5033250;28;20138;-74
2022/07/18 10:41:09;;;;;;;1.90;0.65;;;23.70;73.70;;;;;;5040483;28;20128;-74
2022/07/18 10:43:37;;;;;;;1.58;0.47;;;23.70;72.30;;;;;;5036743;28;20433;-75
2022/07/18 10:46:05;;;;;;;1.08;0.57;;;23.70;73.30;;;;;;5038385;28;20605;-75
2022/07/18 10:48:34;;;;;;;2.55;0.63;;;23.80;72.00;;;;;;5035550;28;20068;-75
2022/07/18 10:51:27;;;;;;;6.07;0.73;;;23.90;70.80;;;;;;5040981;28;20083;-75
2022/07/18 10:53:59;;;;;;;1.67;0.68;;;23.90;67.60;;;;;;5037127;28;20056;-75
2022/07/18 10:56:27;;;;;;;2.72;1.02;;;24.00;70.40;;;;;;5023074;28;20037;-75
2022/07/18 10:58:55;;;;;;;3.40;0.68;;;24.00;70.10;;;;;;5056591;28;20049;-74
2022/07/18 11:01:23;;;;;;;5.47;1.02;;;24.10;70.50;;;;;;5026697;28;20025;-74
2022/07/18 11:03:49;;;;;;;1.10;0.60;;;24.10;70.50;;;;;;5038055;28;20442;-75
2022/07/18 11:06:15;;;;;;;1.50;0.68;;;24.10;70.90;;;;;;5041463;28;20041;-75
2022/07/18 11:08:41;;;;;;;2.58;0.90;;;24.10;69.00;;;;;;5034642;28;20087;-75
2022/07/18 11:11:09;;;;;;;2.50;0.80;;;24.20;67.50;;;;;;5038886;28;20135;-75
2022/07/18 11:13:37;;;;;;;2.00;0.82;;;24.30;67.00;;;;;;5037483;28;20148;-75
2022/07/18 11:16:13;;;;;;;1.38;0.50;;;24.40;65.70;;;;;;5041752;28;20109;-74
2022/07/18 11:18:39;;;;;;;1.42;0.70;;;24.50;61.10;;;;;;5042415;28;20049;-74
2022/07/18 11:21:23;;;;;;;2.42;0.95;;;24.50;63.70;;;;;;5022688;28;20048;-74
2022/07/18 11:24:04;;;;;;;3.53;0.60;;;24.50;62.50;;;;;;5037219;28;20040;-75
2022/07/18 11:26:30;;;;;;;2.47;0.70;;;24.50;63.20;;;;;;5039928;28;20105;-75
2022/07/18 11:28:57;;;;;;;2.33;0.82;;;24.60;63.10;;;;;;5037501;28;20041;-69
2022/07/18 11:31:23;;;;;;;2.05;0.88;;;24.60;62.80;;;;;;5035266;28;20319;-74
2022/07/18 11:33:49;;;;;;;1.95;0.80;;;24.60;62.80;;;;;;5037681;28;20054;-75
2022/07/18 11:36:21;;;;;;;3.45;1.00;;;24.60;63.30;;;;;;5037138;28;20045;-74
2022/07/18 11:38:50;;;;;;;1.42;0.60;;;24.70;62.30;;;;;;5055681;28;20052;-74
2022/07/18 11:41:17;;;;;;;2.00;0.70;;;24.70;61.80;;;;;;5038234;28;20553;-73
2022/07/18 11:43:48;;;;;;;1.67;0.75;;;24.80;61.50;;;;;;5036676;28;20044;-74
2022/07/18 11:46:16;;;;;;;1.58;0.60;;;24.80;60.50;;;;;;5037528;28;20052;-74
2022/07/18 11:48:44;;;;;;;2.65;0.80;;;24.80;60.80;;;;;;5036648;28;20039;-74
2022/07/18 11:51:15;;;;;;;3.85;0.90;;;24.80;60.30;;;;;;5038967;28;20041;-74
2022/07/18 11:53:53;;;;;;;1.60;0.77;;;24.80;59.80;;;;;;5038829;28;20578;-74
2022/07/18 11:56:21;;;;;;;2.10;0.80;;;24.80;59.20;;;;;;5036652;28;20446;-74
2022/07/18 11:58:49;;;;;;;1.60;0.75;;;24.80;60.30;;;;;;5039469;28;20061;-74
2022/07/18 12:01:14;;;;;;;2.70;0.68;;;24.70;60.30;;;;;;5039164;28;20477;-74
2022/07/18 12:03:44;;;;;;;1.83;0.82;;;24.60;60.70;;;;;;5039342;28;20156;-74
2022/07/18 12:06:23;;;;;;;2.00;0.80;;;24.60;60.30;;;;;;5032910;28;20128;-75
2022/07/18 12:08:56;;;;;;;2.50;1.00;;;24.60;59.70;;;;;;5054868;28;20041;-74
2022/07/18 12:11:31;;;;;;;2.03;0.85;;;24.60;60.20;;;;;;5035458;28;20041;-74
2022/07/18 12:13:58;;;;;;;;;;;24.60;58.60;;;;;;5056141;28;20443;-74
2022/07/18 12:16:36;;;;;;;1.33;0.70;;;24.60;56.60;;;;;;5025103;28;20324;-74
2022/07/18 12:19:13;;;;;;;1.60;0.80;;;24.50;59.90;;;;;;5035517;28;20033;-74
2022/07/18 12:21:54;;;;;;;1.65;0.80;;;24.50;60.70;;;;;;5031321;28;20049;-74
2022/07/18 12:24:28;;;;;;;1.58;0.80;;;24.50;61.40;;;;;;5039938;28;20445;-74
2022/07/18 12:27:16;;;;;;;6.07;0.80;;;24.50;62.80;;;;;;5038359;28;20316;-75
2022/07/18 12:30:02;;;;;;;1.77;0.98;;;24.60;61.10;;;;;;5036962;28;20072;-75
2022/07/18 12:32:30;;;;;;;1.70;0.82;;;24.50;62.00;;;;;;5038586;28;20045;-75
2022/07/18 12:35:10;;;;;;;4.70;1.00;;;24.60;63.00;;;;;;5033253;28;20065;-74
2022/07/18 12:37:36;;;;;;;1.90;1.00;;;24.60;60.90;;;;;;5019529;28;20041;-74
2022/07/18 12:40:08;;;;;;;2.10;0.80;;;24.80;61.90;;;;;;5035334;28;20114;-75
2022/07/18 12:42:41;;;;;;;1.73;0.93;;;24.80;60.60;;;;;;5034120;28;20116;-74
2022/07/18 12:45:11;;;;;;;1.40;0.60;;;24.80;60.20;;;;;;5033890;28;20510;-75
2022/07/18 12:47:37;;;;;;;2.90;0.95;;;24.80;60.60;;;;;;5033544;28;20128;-75
2022/07/18 12:50:05;;;;;;;2.40;1.05;;;24.90;60.80;;;;;;5052288;28;20458;-74
2022/07/18 12:52:31;;;;;;;2.05;0.88;;;24.90;59.90;;;;;;5033706;28;20091;-75